Time,TemperatureF,DewpointF,PressureIn,WindDirection,WindDirectionDegrees,WindSpeedMPH,WindSpeedGustMPH,Humidity,HourlyPrecipIn,Conditions,Clouds,dailyrainin,SoftwareType,DateUTC
2013-10-02 00:02:00,73.2,59.9,28.41,East,90,5.0,15.0,63,0.00,,,0.00,meteohub,2013-10-02 05:02:00,
2013-10-02 00:07:00,73.0,60.1,28.41,East,90,10.0,15.0,64,0.00,,,0.00,meteohub,2013-10-02 05:07:00,
2013-10-02 00:12:00,73.2,60.3,28.41,East,90,11.0,15.0,64,0.00,,,0.00,meteohub,2013-10-02 05:12:00,
2013-10-02 00:17:00,72.9,59.9,28.41,East,90,8.0,11.0,64,0.00,,,0.00,meteohub,2013-10-02 05:17:00,
2013-10-02 00:22:00,72.7,59.7,28.41,East,90,6.0,11.0,64,0.00,,,0.00,meteohub,2013-10-02 05:22:00,
2013-10-02 00:27:00,72.9,60.4,28.41,East,90,9.0,11.0,65,0.00,,,0.00,meteohub,2013-10-02 05:27:00,
2013-10-02 00:32:00,72.3,59.9,28.41,East,90,6.0,11.0,65,0.00,,,0.00,meteohub,2013-10-02 05:32:00,
2013-10-02 00:37:00,72.1,59.7,28.41,SE,135,9.0,11.0,65,0.00,,,0.00,meteohub,2013-10-02 05:37:00,
2013-10-02 00:42:00,72.1,60.1,28.40,ESE,113,8.0,10.0,66,0.00,,,0.00,meteohub,2013-10-02 05:42:00,
2013-10-02 00:47:00,72.0,59.9,28.41,East,90,6.0,11.0,66,0.00,,,0.00,meteohub,2013-10-02 05:47:00,
2013-10-02 00:52:00,72.1,60.1,28.40,East,90,8.0,11.0,66,0.00,,,0.00,meteohub,2013-10-02 05:52:00,
2013-10-02 00:57:00,71.8,59.7,28.40,East,90,6.0,11.0,66,0.00,,,0.00,meteohub,2013-10-02 05:57:00,
2013-10-02 01:02:00,71.8,60.3,28.40,East,90,5.0,11.0,67,0.00,,,0.00,meteohub,2013-10-02 06:02:00,
2013-10-02 01:07:00,71.6,60.1,28.40,South,180,8.0,11.0,67,0.00,,,0.00,meteohub,2013-10-02 06:07:00,
2013-10-02 01:12:00,71.6,60.1,28.40,East,90,7.0,11.0,67,0.00,,,0.00,meteohub,2013-10-02 06:12:00,
2013-10-02 01:17:00,71.4,60.3,28.40,East,90,9.0,11.0,68,0.00,,,0.00,meteohub,2013-10-02 06:17:00,
2013-10-02 01:22:00,71.6,60.4,28.40,East,90,8.0,11.0,68,0.00,,,0.00,meteohub,2013-10-02 06:22:00,
2013-10-02 01:27:00,71.6,60.4,28.40,SE,135,8.0,9.0,68,0.00,,,0.00,meteohub,2013-10-02 06:27:00,
2013-10-02 01:32:00,71.2,60.1,28.40,NE,45,6.0,10.0,68,0.00,,,0.00,meteohub,2013-10-02 06:32:00,
2013-10-02 01:37:00,71.2,60.6,28.40,NE,45,5.0,10.0,69,0.00,,,0.00,meteohub,2013-10-02 06:37:00,
2013-10-02 01:42:00,71.1,60.4,28.40,East,90,7.0,10.0,69,0.00,,,0.00,meteohub,2013-10-02 06:42:00,
2013-10-02 01:47:00,71.2,60.6,28.40,East,90,5.0,9.0,69,0.00,,,0.00,meteohub,2013-10-02 06:47:00,
2013-10-02 01:52:00,71.1,60.8,28.40,East,90,6.0,10.0,70,0.00,,,0.00,meteohub,2013-10-02 06:52:00,
2013-10-02 01:57:00,70.9,60.6,28.40,SE,135,9.0,10.0,70,0.00,,,0.00,meteohub,2013-10-02 06:57:00,
2013-10-02 02:02:00,70.7,60.4,28.40,East,90,8.0,10.0,70,0.00,,,0.00,meteohub,2013-10-02 07:02:00,
2013-10-02 02:07:00,70.9,61.0,28.40,East,90,7.0,10.0,71,0.00,,,0.00,meteohub,2013-10-02 07:07:00,
2013-10-02 02:12:00,70.9,61.0,28.40,SE,135,8.0,10.0,71,0.00,,,0.00,meteohub,2013-10-02 07:12:00,
2013-10-02 02:17:00,70.9,61.0,28.40,East,90,8.0,10.0,71,0.00,,,0.00,meteohub,2013-10-02 07:17:00,
2013-10-02 02:22:00,70.7,60.8,28.40,East,90,1.0,11.0,71,0.00,,,0.00,meteohub,2013-10-02 07:22:00,
2013-10-02 02:27:00,70.9,61.3,28.40,SE,135,1.0,11.0,72,0.00,,,0.00,meteohub,2013-10-02 07:27:00,
2013-10-02 02:32:00,71.1,61.5,28.40,East,90,8.0,11.0,72,0.00,,,0.00,meteohub,2013-10-02 07:32:00,
2013-10-02 02:37:00,70.9,61.3,28.40,SE,135,7.0,11.0,72,0.00,,,0.00,meteohub,2013-10-02 07:37:00,
2013-10-02 02:42:00,70.9,61.3,28.40,East,90,7.0,11.0,72,0.00,,,0.00,meteohub,2013-10-02 07:42:00,
2013-10-02 02:47:00,70.7,61.2,28.40,East,90,6.0,12.0,72,0.00,,,0.00,meteohub,2013-10-02 07:47:00,
2013-10-02 02:52:00,70.7,61.2,28.40,East,90,7.0,12.0,72,0.00,,,0.00,meteohub,2013-10-02 07:52:00,
2013-10-02 02:57:00,70.7,61.7,28.40,SE,135,6.0,12.0,73,0.00,,,0.00,meteohub,2013-10-02 07:57:00,
2013-10-02 03:02:00,70.5,61.5,28.40,East,90,8.0,11.0,73,0.00,,,0.00,meteohub,2013-10-02 08:02:00,
2013-10-02 03:07:00,70.2,61.2,28.40,East,90,8.0,11.0,73,0.00,,,0.00,meteohub,2013-10-02 08:07:00,
2013-10-02 03:12:00,70.5,61.9,28.40,East,90,8.0,9.0,74,0.00,,,0.00,meteohub,2013-10-02 08:12:00,
2013-10-02 03:17:00,70.2,61.5,28.40,East,90,7.0,10.0,74,0.00,,,0.00,meteohub,2013-10-02 08:17:00,
2013-10-02 03:22:00,70.2,61.5,28.40,SE,135,7.0,10.0,74,0.00,,,0.00,meteohub,2013-10-02 08:22:00,
2013-10-02 03:27:00,70.0,61.3,28.40,East,90,2.0,10.0,74,0.00,,,0.00,meteohub,2013-10-02 08:27:00,
2013-10-02 03:32:00,69.6,61.3,28.39,East,90,1.0,9.0,75,0.00,,,0.00,meteohub,2013-10-02 08:32:00,
2013-10-02 03:37:00,69.4,61.5,28.39,East,90,1.0,9.0,76,0.00,,,0.00,meteohub,2013-10-02 08:37:00,
2013-10-02 03:42:00,69.3,61.3,28.39,SE,135,1.0,7.0,76,0.00,,,0.00,meteohub,2013-10-02 08:42:00,
2013-10-02 03:47:00,69.4,61.5,28.39,East,90,2.0,7.0,76,0.00,,,0.00,meteohub,2013-10-02 08:47:00,
2013-10-02 03:52:00,69.4,61.5,28.38,East,90,1.0,7.0,76,0.00,,,0.00,meteohub,2013-10-02 08:52:00,
2013-10-02 03:57:00,69.3,61.7,28.39,East,90,6.0,6.0,77,0.00,,,0.00,meteohub,2013-10-02 08:57:00,
2013-10-02 04:02:00,69.1,61.5,28.39,East,90,4.0,8.0,77,0.00,,,0.00,meteohub,2013-10-02 09:02:00,
2013-10-02 04:08:00,69.1,61.9,28.39,East,90,8.0,8.0,78,0.00,,,0.00,meteohub,2013-10-02 09:08:00,
2013-10-02 04:12:00,68.9,61.7,28.39,SE,135,7.0,8.0,78,0.00,,,0.00,meteohub,2013-10-02 09:12:00,
2013-10-02 04:17:00,68.7,61.5,28.39,East,90,1.0,9.0,78,0.00,,,0.00,meteohub,2013-10-02 09:17:00,
2013-10-02 04:23:00,68.7,61.9,28.39,East,90,1.0,9.0,79,0.00,,,0.00,meteohub,2013-10-02 09:23:00,
2013-10-02 04:28:00,68.7,61.9,28.39,East,90,8.0,9.0,79,0.00,,,0.00,meteohub,2013-10-02 09:28:00,
2013-10-02 04:33:00,68.7,61.9,28.38,East,90,6.0,8.0,79,0.00,,,0.00,meteohub,2013-10-02 09:33:00,
2013-10-02 04:38:00,68.5,62.1,28.38,SE,135,8.0,8.0,80,0.00,,,0.00,meteohub,2013-10-02 09:38:00,
2013-10-02 04:43:00,68.4,61.9,28.38,East,90,7.0,8.0,80,0.00,,,0.00,meteohub,2013-10-02 09:43:00,
2013-10-02 04:48:00,68.4,61.9,28.38,NE,45,6.0,8.0,80,0.00,,,0.00,meteohub,2013-10-02 09:48:00,
2013-10-02 04:53:00,68.2,62.1,28.38,SE,135,8.0,8.0,81,0.00,,,0.00,meteohub,2013-10-02 09:53:00,
2013-10-02 04:58:00,68.4,62.2,28.38,East,90,4.0,8.0,81,0.00,,,0.00,meteohub,2013-10-02 09:58:00,
2013-10-02 05:03:00,68.4,62.2,28.38,East,90,8.0,8.0,81,0.00,,,0.00,meteohub,2013-10-02 10:03:00,
2013-10-02 05:08:00,68.4,62.2,28.38,East,90,1.0,10.0,81,0.00,,,0.00,meteohub,2013-10-02 10:08:00,
2013-10-02 05:13:00,68.2,62.1,28.38,East,90,8.0,10.0,81,0.00,,,0.00,meteohub,2013-10-02 10:13:00,
2013-10-02 05:18:00,68.5,62.8,28.38,ESE,113,6.0,9.0,82,0.00,,,0.00,meteohub,2013-10-02 10:18:00,
2013-10-02 05:23:00,68.2,62.4,28.38,East,90,8.0,8.0,82,0.00,,,0.00,meteohub,2013-10-02 10:23:00,
2013-10-02 05:28:00,68.4,63.0,28.39,SE,135,7.0,9.0,83,0.00,,,0.00,meteohub,2013-10-02 10:28:00,
2013-10-02 05:33:00,68.4,63.0,28.39,East,90,11.0,11.0,83,0.00,,,0.00,meteohub,2013-10-02 10:33:00,
2013-10-02 05:38:00,68.7,63.3,28.39,NE,45,7.0,11.0,83,0.00,,,0.00,meteohub,2013-10-02 10:38:00,
2013-10-02 05:43:00,68.5,63.1,28.39,East,90,10.0,11.0,83,0.00,,,0.00,meteohub,2013-10-02 10:43:00,
2013-10-02 05:48:00,68.4,63.0,28.39,East,90,4.0,11.0,83,0.00,,,0.00,meteohub,2013-10-02 10:48:00,
2013-10-02 05:53:00,68.5,63.5,28.39,East,90,8.0,11.0,84,0.00,,,0.00,meteohub,2013-10-02 10:53:00,
2013-10-02 05:58:00,68.4,63.3,28.39,NE,45,1.0,11.0,84,0.00,,,0.00,meteohub,2013-10-02 10:58:00,
2013-10-02 06:03:00,68.2,63.1,28.39,SE,135,7.0,11.0,84,0.00,,,0.00,meteohub,2013-10-02 11:03:00,
2013-10-02 06:08:00,68.2,63.5,28.39,East,90,5.0,8.0,85,0.00,,,0.00,meteohub,2013-10-02 11:08:00,
2013-10-02 06:13:00,68.2,63.5,28.39,NNE,23,5.0,11.0,85,0.00,,,0.00,meteohub,2013-10-02 11:13:00,
2013-10-02 06:18:00,68.2,63.5,28.39,East,90,8.0,11.0,85,0.00,,,0.00,meteohub,2013-10-02 11:18:00,
2013-10-02 06:23:00,68.4,64.0,28.39,East,90,6.0,11.0,86,0.00,,,0.00,meteohub,2013-10-02 11:23:00,
2013-10-02 06:28:00,68.4,64.0,28.39,East,90,1.0,11.0,86,0.00,,,0.00,meteohub,2013-10-02 11:28:00,
2013-10-02 06:33:00,68.4,64.4,28.40,East,90,11.0,11.0,87,0.00,,,0.00,meteohub,2013-10-02 11:33:00,
2013-10-02 06:38:00,68.2,64.2,28.40,SE,135,2.0,11.0,87,0.00,,,0.00,meteohub,2013-10-02 11:38:00,
2013-10-02 06:43:00,68.5,64.6,28.40,East,90,8.0,11.0,87,0.00,,,0.00,meteohub,2013-10-02 11:43:00,
2013-10-02 06:48:00,68.4,64.6,28.40,East,90,8.0,12.0,88,0.00,,,0.00,meteohub,2013-10-02 11:48:00,
2013-10-02 06:53:00,68.4,64.6,28.40,East,90,7.0,12.0,88,0.00,,,0.00,meteohub,2013-10-02 11:53:00,
2013-10-02 06:58:00,68.0,64.4,28.40,North,0,5.0,12.0,88,0.00,,,0.00,meteohub,2013-10-02 11:58:00,
2013-10-02 07:03:00,68.0,64.4,28.40,East,90,7.0,9.0,88,0.00,,,0.00,meteohub,2013-10-02 12:03:00,
2013-10-02 07:08:00,67.6,64.2,28.40,NE,45,6.0,9.0,89,0.00,,,0.00,meteohub,2013-10-02 12:08:00,
2013-10-02 07:13:00,67.5,64.0,28.40,SE,135,8.0,9.0,89,0.00,,,0.00,meteohub,2013-10-02 12:13:00,
2013-10-02 07:18:00,67.1,64.0,28.40,East,90,1.0,8.0,90,0.00,,,0.00,meteohub,2013-10-02 12:18:00,
2013-10-02 07:23:00,67.5,64.8,28.40,East,90,2.0,8.0,91,0.00,,,0.00,meteohub,2013-10-02 12:23:00,
2013-10-02 07:28:00,67.3,64.6,28.40,NE,45,5.0,8.0,91,0.00,,,0.00,meteohub,2013-10-02 12:28:00,
2013-10-02 07:33:00,67.5,64.8,28.40,East,90,7.0,8.0,91,0.00,,,0.00,meteohub,2013-10-02 12:33:00,
2013-10-02 07:38:00,67.3,64.6,28.40,East,90,8.0,10.0,91,0.00,,,0.00,meteohub,2013-10-02 12:38:00,
2013-10-02 07:43:00,67.5,65.1,28.40,SE,135,6.0,10.0,92,0.00,,,0.00,meteohub,2013-10-02 12:43:00,
2013-10-02 07:48:00,67.5,65.1,28.40,East,90,8.0,10.0,92,0.00,,,0.00,meteohub,2013-10-02 12:48:00,
2013-10-02 07:53:00,67.6,65.3,28.41,East,90,7.0,10.0,92,0.00,,,0.00,meteohub,2013-10-02 12:53:00,
2013-10-02 07:58:00,67.6,65.3,28.41,East,90,8.0,11.0,92,0.00,,,0.00,meteohub,2013-10-02 12:58:00,
2013-10-02 08:03:00,67.6,65.5,28.41,East,90,3.0,11.0,93,0.00,,,0.00,meteohub,2013-10-02 13:03:00,
2013-10-02 08:08:00,68.0,65.8,28.41,NE,45,10.0,11.0,93,0.00,,,0.00,meteohub,2013-10-02 13:08:00,
2013-10-02 08:13:00,67.8,65.7,28.41,East,90,7.0,11.0,93,0.00,,,0.00,meteohub,2013-10-02 13:13:00,
2013-10-02 08:18:00,68.0,65.8,28.41,East,90,6.0,14.0,93,0.00,,,0.00,meteohub,2013-10-02 13:18:00,
2013-10-02 08:23:00,68.4,66.2,28.42,East,90,11.0,14.0,93,0.00,,,0.00,meteohub,2013-10-02 13:23:00,
2013-10-02 08:28:00,68.5,66.4,28.42,SE,135,9.0,15.0,93,0.00,,,0.00,meteohub,2013-10-02 13:28:00,
2013-10-02 08:33:00,68.5,66.4,28.42,East,90,8.0,15.0,93,0.00,,,0.00,meteohub,2013-10-02 13:33:00,
2013-10-02 08:38:00,68.9,66.7,28.42,SE,135,9.0,15.0,93,0.00,,,0.00,meteohub,2013-10-02 13:38:00,
2013-10-02 08:43:00,69.4,67.3,28.42,SE,135,1.0,12.0,93,0.00,,,0.00,meteohub,2013-10-02 13:43:00,
2013-10-02 08:48:00,69.6,67.3,28.42,East,90,6.0,12.0,92,0.00,,,0.00,meteohub,2013-10-02 13:48:00,
2013-10-02 08:53:00,70.2,67.5,28.43,SE,135,7.0,13.0,91,0.00,,,0.00,meteohub,2013-10-02 13:53:00,
2013-10-02 08:58:00,70.7,67.6,28.43,East,90,7.0,13.0,90,0.00,,,0.00,meteohub,2013-10-02 13:58:00,
2013-10-02 09:03:00,71.4,68.0,28.43,SE,135,12.0,13.0,89,0.00,,,0.00,meteohub,2013-10-02 14:03:00,
2013-10-02 09:08:00,71.8,68.4,28.43,SE,135,12.0,13.0,89,0.00,,,0.00,meteohub,2013-10-02 14:08:00,
2013-10-02 09:14:00,72.0,68.2,28.43,SE,135,9.0,14.0,88,0.00,,,0.00,meteohub,2013-10-02 14:14:00,
2013-10-02 09:19:00,72.5,68.7,28.43,East,90,2.0,14.0,88,0.00,,,0.00,meteohub,2013-10-02 14:19:00,
2013-10-02 09:24:00,73.0,68.9,28.43,East,90,1.0,14.0,87,0.00,,,0.00,meteohub,2013-10-02 14:24:00,
2013-10-02 09:29:00,73.2,68.7,28.43,SE,135,11.0,12.0,86,0.00,,,0.00,meteohub,2013-10-02 14:29:00,
2013-10-02 09:34:00,73.2,68.7,28.43,East,90,11.0,12.0,86,0.00,,,0.00,meteohub,2013-10-02 14:34:00,
2013-10-02 09:39:00,73.6,68.7,28.43,NE,45,14.0,14.0,85,0.00,,,0.00,meteohub,2013-10-02 14:39:00,
2013-10-02 09:44:00,73.8,69.3,28.43,East,90,8.0,12.0,86,0.00,,,0.00,meteohub,2013-10-02 14:44:00,
2013-10-02 09:49:00,74.1,69.6,28.43,South,180,7.0,14.0,86,0.00,,,0.00,meteohub,2013-10-02 14:49:00,
2013-10-02 09:54:00,74.5,69.6,28.43,NE,45,7.0,14.0,85,0.00,,,0.00,meteohub,2013-10-02 14:54:00,
2013-10-02 09:59:00,75.0,70.2,28.43,South,180,8.0,15.0,85,0.00,,,0.00,meteohub,2013-10-02 14:59:00,
2013-10-02 10:04:00,75.7,70.2,28.43,South,180,7.0,15.0,83,0.00,,,0.00,meteohub,2013-10-02 15:04:00,
2013-10-02 10:09:00,75.9,70.3,28.43,East,90,9.0,15.0,83,0.00,,,0.00,meteohub,2013-10-02 15:09:00,
2013-10-02 10:14:00,76.1,70.2,28.43,SE,135,8.0,14.0,82,0.00,,,0.00,meteohub,2013-10-02 15:14:00,
2013-10-02 10:19:00,76.3,70.0,28.43,South,180,5.0,14.0,81,0.00,,,0.00,meteohub,2013-10-02 15:19:00,
2013-10-02 10:24:00,76.5,70.2,28.43,SE,135,9.0,13.0,81,0.00,,,0.00,meteohub,2013-10-02 15:24:00,
2013-10-02 10:29:00,76.6,70.3,28.44,South,180,8.0,13.0,81,0.00,,,0.00,meteohub,2013-10-02 15:29:00,
2013-10-02 10:34:00,76.8,70.2,28.43,East,90,8.0,11.0,80,0.00,,,0.00,meteohub,2013-10-02 15:34:00,
2013-10-02 10:39:00,77.7,70.7,28.44,South,180,8.0,15.0,79,0.00,,,0.00,meteohub,2013-10-02 15:39:00,
2013-10-02 10:44:00,78.3,70.9,28.43,NE,45,9.0,15.0,78,0.00,,,0.00,meteohub,2013-10-02 15:44:00,
2013-10-02 10:49:00,78.6,71.2,28.43,NE,45,7.0,15.0,78,0.00,,,0.00,meteohub,2013-10-02 15:49:00,
2013-10-02 10:54:00,78.8,71.1,28.43,South,180,8.0,10.0,77,0.00,,,0.00,meteohub,2013-10-02 15:54:00,
2013-10-02 10:59:00,79.0,70.7,28.44,SSE,158,7.0,12.0,76,0.00,,,0.00,meteohub,2013-10-02 15:59:00,
2013-10-02 11:04:00,79.2,71.2,28.43,ESE,113,11.0,12.0,77,0.00,,,0.00,meteohub,2013-10-02 16:04:00,
2013-10-02 11:09:00,79.3,71.1,28.43,East,90,11.0,14.0,76,0.00,,,0.00,meteohub,2013-10-02 16:09:00,
2013-10-02 11:14:00,79.3,70.7,28.44,South,180,8.0,14.0,75,0.00,,,0.00,meteohub,2013-10-02 16:14:00,
2013-10-02 11:19:00,80.1,71.1,28.43,NE,45,7.0,15.0,74,0.00,,,0.00,meteohub,2013-10-02 16:19:00,
2013-10-02 11:24:00,80.2,71.2,28.44,SSE,158,4.0,15.0,74,0.00,,,0.00,meteohub,2013-10-02 16:24:00,
2013-10-02 11:29:00,80.4,70.9,28.43,SE,135,6.0,15.0,73,0.00,,,0.00,meteohub,2013-10-02 16:29:00,
2013-10-02 11:34:00,80.6,71.1,28.43,East,90,4.0,12.0,73,0.00,,,0.00,meteohub,2013-10-02 16:34:00,
2013-10-02 11:39:00,81.1,71.2,28.43,SE,135,6.0,11.0,72,0.00,,,0.00,meteohub,2013-10-02 16:39:00,
2013-10-02 11:44:00,81.3,71.4,28.43,East,90,6.0,11.0,72,0.00,,,0.00,meteohub,2013-10-02 16:44:00,
2013-10-02 11:49:00,82.0,70.9,28.43,NE,45,8.0,11.0,69,0.00,,,0.00,meteohub,2013-10-02 16:49:00,
2013-10-02 11:54:00,82.6,70.5,28.43,South,180,10.0,14.0,67,0.00,,,0.00,meteohub,2013-10-02 16:54:00,
2013-10-02 11:59:00,83.1,70.5,28.42,East,90,8.0,15.0,66,0.00,,,0.00,meteohub,2013-10-02 16:59:00,
2013-10-02 12:04:00,83.5,70.5,28.43,South,180,9.0,15.0,65,0.00,,,0.00,meteohub,2013-10-02 17:04:00,
2013-10-02 12:09:00,83.5,70.9,28.42,NE,45,8.0,15.0,66,0.00,,,0.00,meteohub,2013-10-02 17:09:00,
2013-10-02 12:14:00,84.0,70.5,28.42,SE,135,7.0,12.0,64,0.00,,,0.00,meteohub,2013-10-02 17:14:00,
2013-10-02 12:19:00,84.0,70.0,28.42,South,180,9.0,12.0,63,0.00,,,0.00,meteohub,2013-10-02 17:19:00,
2013-10-02 12:24:00,83.8,70.9,28.42,North,0,6.0,11.0,65,0.00,,,0.00,meteohub,2013-10-02 17:24:00,
2013-10-02 12:29:00,84.2,70.2,28.42,NE,45,11.0,13.0,63,0.00,,,0.00,meteohub,2013-10-02 17:29:00,
2013-10-02 12:34:00,84.6,70.5,28.41,NE,45,8.0,14.0,63,0.00,,,0.00,meteohub,2013-10-02 17:34:00,
2013-10-02 12:39:00,85.1,71.1,28.41,SE,135,10.0,14.0,63,0.00,,,0.00,meteohub,2013-10-02 17:39:00,
2013-10-02 12:45:00,85.5,71.4,28.40,ESE,113,4.0,14.0,63,0.00,,,0.00,meteohub,2013-10-02 17:45:00,
2013-10-02 12:50:00,85.6,70.7,28.40,South,180,8.0,13.0,61,0.00,,,0.00,meteohub,2013-10-02 17:50:00,
2013-10-02 12:55:00,85.8,70.3,28.40,East,90,10.0,13.0,60,0.00,,,0.00,meteohub,2013-10-02 17:55:00,
2013-10-02 13:00:00,85.8,70.3,28.40,East,90,8.0,14.0,60,0.00,,,0.00,meteohub,2013-10-02 18:00:00,
2013-10-02 13:05:00,86.0,70.5,28.40,SW,225,7.0,14.0,60,0.00,,,0.00,meteohub,2013-10-02 18:05:00,
2013-10-02 13:10:00,86.0,71.1,28.40,East,90,11.0,15.0,61,0.00,,,0.00,meteohub,2013-10-02 18:10:00,
2013-10-02 13:15:00,86.4,70.3,28.40,NNE,23,8.0,15.0,59,0.00,,,0.00,meteohub,2013-10-02 18:15:00,
2013-10-02 13:20:00,85.8,69.8,28.39,SW,225,8.0,15.0,59,0.00,,,0.00,meteohub,2013-10-02 18:20:00,
2013-10-02 13:25:00,85.8,70.3,28.39,ESE,113,6.0,11.0,60,0.00,,,0.00,meteohub,2013-10-02 18:25:00,
2013-10-02 13:30:00,86.0,71.4,28.38,East,90,10.0,11.0,62,0.00,,,0.00,meteohub,2013-10-02 18:30:00,
2013-10-02 13:35:00,86.4,70.3,28.38,SW,225,11.0,13.0,59,0.00,,,0.00,meteohub,2013-10-02 18:35:00,
2013-10-02 13:40:00,86.4,70.9,28.38,East,90,12.0,13.0,60,0.00,,,0.00,meteohub,2013-10-02 18:40:00,
2013-10-02 13:45:00,86.4,69.8,28.38,SE,135,11.0,13.0,58,0.00,,,0.00,meteohub,2013-10-02 18:45:00,
2013-10-02 13:50:00,86.9,70.3,28.38,SE,135,9.0,16.0,58,0.00,,,0.00,meteohub,2013-10-02 18:50:00,
2013-10-02 13:55:00,86.7,70.2,28.38,SW,225,13.0,16.0,58,0.00,,,0.00,meteohub,2013-10-02 18:55:00,
2013-10-02 14:00:00,86.5,70.0,28.37,SE,135,4.0,16.0,58,0.00,,,0.00,meteohub,2013-10-02 19:00:00,
2013-10-02 14:05:00,87.4,69.8,28.37,SE,135,8.0,13.0,56,0.00,,,0.00,meteohub,2013-10-02 19:05:00,
2013-10-02 14:10:00,87.1,69.4,28.37,NW,315,11.0,13.0,56,0.00,,,0.00,meteohub,2013-10-02 19:10:00,
2013-10-02 14:15:00,87.1,69.4,28.37,South,180,14.0,14.0,56,0.00,,,0.00,meteohub,2013-10-02 19:15:00,
2013-10-02 14:20:00,87.1,70.0,28.36,SE,135,13.0,14.0,57,0.00,,,0.00,meteohub,2013-10-02 19:20:00,
2013-10-02 14:25:00,87.3,69.6,28.36,SE,135,11.0,18.0,56,0.00,,,0.00,meteohub,2013-10-02 19:25:00,
2013-10-02 14:30:00,86.7,69.1,28.36,East,90,8.0,18.0,56,0.00,,,0.00,meteohub,2013-10-02 19:30:00,
2013-10-02 14:35:00,86.9,69.8,28.35,East,90,10.0,18.0,57,0.00,,,0.00,meteohub,2013-10-02 19:35:00,
2013-10-02 14:40:00,87.4,69.3,28.35,SE,135,8.0,12.0,55,0.00,,,0.00,meteohub,2013-10-02 19:40:00,
2013-10-02 14:45:00,87.8,69.6,28.35,East,90,7.0,13.0,55,0.00,,,0.00,meteohub,2013-10-02 19:45:00,
2013-10-02 14:50:00,88.5,69.3,28.35,East,90,10.0,13.0,53,0.00,,,0.00,meteohub,2013-10-02 19:50:00,
2013-10-02 14:55:00,88.0,68.7,28.35,East,90,6.0,13.0,53,0.00,,,0.00,meteohub,2013-10-02 19:55:00,
2013-10-02 15:00:00,87.8,69.1,28.35,East,90,8.0,13.0,54,0.00,,,0.00,meteohub,2013-10-02 20:00:00,
2013-10-02 15:05:00,87.8,69.6,28.34,NE,45,7.0,14.0,55,0.00,,,0.00,meteohub,2013-10-02 20:05:00,
2013-10-02 15:10:00,88.0,68.7,28.34,East,90,6.0,14.0,53,0.00,,,0.00,meteohub,2013-10-02 20:10:00,
2013-10-02 15:15:00,88.7,68.7,28.35,East,90,8.0,11.0,52,0.00,,,0.00,meteohub,2013-10-02 20:15:00,
2013-10-02 15:20:00,87.8,68.5,28.34,SE,135,5.0,11.0,53,0.00,,,0.00,meteohub,2013-10-02 20:20:00,
2013-10-02 15:25:00,89.1,69.1,28.34,SE,135,7.0,11.0,52,0.00,,,0.00,meteohub,2013-10-02 20:25:00,
2013-10-02 15:30:00,88.7,66.6,28.34,SE,135,8.0,11.0,48,0.00,,,0.00,meteohub,2013-10-02 20:30:00,
2013-10-02 15:35:00,88.2,67.8,28.34,South,180,4.0,15.0,51,0.00,,,0.00,meteohub,2013-10-02 20:35:00,
2013-10-02 15:40:00,88.9,67.8,28.33,East,90,8.0,15.0,50,0.00,,,0.00,meteohub,2013-10-02 20:40:00,
2013-10-02 15:45:00,89.1,67.5,28.33,ESE,113,10.0,13.0,49,0.00,,,0.00,meteohub,2013-10-02 20:45:00,
2013-10-02 15:50:00,88.9,67.3,28.33,West,270,8.0,18.0,49,0.00,,,0.00,meteohub,2013-10-02 20:50:00,
2013-10-02 15:56:00,89.4,67.8,28.33,East,90,11.0,18.0,49,0.00,,,0.00,meteohub,2013-10-02 20:56:00,
2013-10-02 16:00:00,89.8,66.9,28.32,South,180,12.0,18.0,47,0.00,,,0.00,meteohub,2013-10-02 21:00:00,
2013-10-02 16:05:00,89.2,66.4,28.32,South,180,10.0,15.0,47,0.00,,,0.00,meteohub,2013-10-02 21:05:00,
2013-10-02 16:11:00,88.9,66.6,28.33,South,180,7.0,15.0,48,0.00,,,0.00,meteohub,2013-10-02 21:11:00,
2013-10-02 16:16:00,88.9,67.3,28.32,East,90,11.0,15.0,49,0.00,,,0.00,meteohub,2013-10-02 21:16:00,
2013-10-02 16:21:00,89.1,66.2,28.32,SE,135,9.0,14.0,47,0.00,,,0.00,meteohub,2013-10-02 21:21:00,
2013-10-02 16:26:00,89.2,66.9,28.32,East,90,8.0,14.0,48,0.00,,,0.00,meteohub,2013-10-02 21:26:00,
2013-10-02 16:31:00,89.4,67.8,28.32,NE,45,6.0,14.0,49,0.00,,,0.00,meteohub,2013-10-02 21:31:00,
2013-10-02 16:36:00,89.4,67.1,28.32,South,180,5.0,14.0,48,0.00,,,0.00,meteohub,2013-10-02 21:36:00,
2013-10-02 16:41:00,90.3,66.0,28.32,SSE,158,9.0,14.0,45,0.00,,,0.00,meteohub,2013-10-02 21:41:00,
2013-10-02 16:46:00,89.2,65.7,28.31,SSE,158,10.0,14.0,46,0.00,,,0.00,meteohub,2013-10-02 21:46:00,
2013-10-02 16:51:00,89.1,66.2,28.32,SE,135,9.0,15.0,47,0.00,,,0.00,meteohub,2013-10-02 21:51:00,
2013-10-02 16:56:00,88.5,65.1,28.31,SE,135,13.0,15.0,46,0.00,,,0.00,meteohub,2013-10-02 21:56:00,
2013-10-02 17:01:00,89.1,65.7,28.31,SE,135,12.0,15.0,46,0.00,,,0.00,meteohub,2013-10-02 22:01:00,
2013-10-02 17:06:00,88.5,65.7,28.31,SSW,203,7.0,13.0,47,0.00,,,0.00,meteohub,2013-10-02 22:06:00,
2013-10-02 17:11:00,89.1,64.9,28.31,South,180,12.0,13.0,45,0.00,,,0.00,meteohub,2013-10-02 22:11:00,
2013-10-02 17:16:00,89.1,64.9,28.31,SE,135,13.0,14.0,45,0.00,,,0.00,meteohub,2013-10-02 22:16:00,
2013-10-02 17:21:00,88.7,65.8,28.31,NNE,23,6.0,14.0,47,0.00,,,0.00,meteohub,2013-10-02 22:21:00,
2013-10-02 17:26:00,88.9,66.0,28.31,SE,135,9.0,13.0,47,0.00,,,0.00,meteohub,2013-10-02 22:26:00,
2013-10-02 17:31:00,88.5,65.7,28.31,South,180,11.0,13.0,47,0.00,,,0.00,meteohub,2013-10-02 22:31:00,
2013-10-02 17:36:00,88.3,64.9,28.31,East,90,5.0,13.0,46,0.00,,,0.00,meteohub,2013-10-02 22:36:00,
2013-10-02 17:41:00,88.5,65.1,28.31,South,180,7.0,13.0,46,0.00,,,0.00,meteohub,2013-10-02 22:41:00,
2013-10-02 17:46:00,88.5,65.1,28.30,SE,135,11.0,11.0,46,0.00,,,0.00,meteohub,2013-10-02 22:46:00,
2013-10-02 17:51:00,88.3,65.5,28.31,East,90,9.0,12.0,47,0.00,,,0.00,meteohub,2013-10-02 22:51:00,
2013-10-02 17:56:00,88.3,65.5,28.31,East,90,8.0,12.0,47,0.00,,,0.00,meteohub,2013-10-02 22:56:00,
2013-10-02 18:01:00,88.3,64.9,28.30,South,180,8.0,14.0,46,0.00,,,0.00,meteohub,2013-10-02 23:01:00,
2013-10-02 18:06:00,88.2,64.8,28.30,East,90,5.0,14.0,46,0.00,,,0.00,meteohub,2013-10-02 23:06:00,
2013-10-02 18:11:00,88.0,64.6,28.30,South,180,10.0,15.0,46,0.00,,,0.00,meteohub,2013-10-02 23:11:00,
2013-10-02 18:16:00,87.8,64.4,28.31,West,270,11.0,15.0,46,0.00,,,0.00,meteohub,2013-10-02 23:16:00,
2013-10-02 18:21:00,87.8,64.4,28.31,SE,135,8.0,15.0,46,0.00,,,0.00,meteohub,2013-10-02 23:21:00,
2013-10-02 18:26:00,87.6,65.5,28.31,SE,135,11.0,12.0,48,0.00,,,0.00,meteohub,2013-10-02 23:26:00,
2013-10-02 18:31:00,87.3,64.0,28.31,East,90,6.0,12.0,46,0.00,,,0.00,meteohub,2013-10-02 23:31:00,
2013-10-02 18:36:00,87.3,64.0,28.31,East,90,9.0,15.0,46,0.00,,,0.00,meteohub,2013-10-02 23:36:00,
2013-10-02 18:41:00,86.9,63.7,28.30,SE,135,10.0,15.0,46,0.00,,,0.00,meteohub,2013-10-02 23:41:00,
2013-10-02 18:47:00,86.7,64.0,28.31,SE,135,8.0,15.0,47,0.00,,,0.00,meteohub,2013-10-02 23:47:00,
2013-10-02 18:49:00,86.7,64.0,28.31,ENE,68,8.0,15.0,47,0.00,,,0.00,meteohub,2013-10-02 23:49:00,
2013-10-02 18:54:00,86.2,64.2,28.31,ESE,113,2.0,15.0,48,0.00,,,0.00,meteohub,2013-10-02 23:54:00,
2013-10-02 18:59:00,85.8,64.4,28.31,SE,135,11.0,15.0,49,0.00,,,0.00,meteohub,2013-10-02 23:59:00,
2013-10-02 19:04:00,85.5,64.8,28.31,SE,135,6.0,11.0,50,0.00,,,0.00,meteohub,2013-10-03 00:04:00,
2013-10-02 19:09:00,84.7,64.6,28.31,SE,135,7.0,11.0,51,0.00,,,0.00,meteohub,2013-10-03 00:09:00,
2013-10-02 19:14:00,84.4,64.2,28.31,South,180,6.0,11.0,51,0.00,,,0.00,meteohub,2013-10-03 00:14:00,
2013-10-02 19:19:00,84.0,64.6,28.31,South,180,4.0,11.0,52,0.00,,,0.00,meteohub,2013-10-03 00:19:00,
2013-10-02 19:24:00,83.8,64.4,28.32,NW,315,6.0,8.0,52,0.00,,,0.00,meteohub,2013-10-03 00:24:00,
2013-10-02 19:29:00,83.5,64.6,28.32,NE,45,4.0,8.0,53,0.00,,,0.00,meteohub,2013-10-03 00:29:00,
2013-10-02 19:34:00,82.9,64.6,28.32,East,90,4.0,8.0,54,0.00,,,0.00,meteohub,2013-10-03 00:34:00,
2013-10-02 19:39:00,82.8,64.4,28.32,SE,135,3.0,8.0,54,0.00,,,0.00,meteohub,2013-10-03 00:39:00,
2013-10-02 19:44:00,82.4,64.6,28.32,SE,135,4.0,8.0,55,0.00,,,0.00,meteohub,2013-10-03 00:44:00,
2013-10-02 19:49:00,82.0,64.8,28.32,SSE,158,3.0,7.0,56,0.00,,,0.00,meteohub,2013-10-03 00:49:00,
2013-10-02 19:54:00,81.7,64.9,28.32,SE,135,1.0,7.0,57,0.00,,,0.00,meteohub,2013-10-03 00:54:00,
2013-10-02 19:59:00,81.5,64.8,28.32,East,90,1.0,4.0,57,0.00,,,0.00,meteohub,2013-10-03 00:59:00,
2013-10-02 20:04:00,81.3,65.1,28.32,North,0,6.0,6.0,58,0.00,,,0.00,meteohub,2013-10-03 01:04:00,
2013-10-02 20:09:00,81.3,65.1,28.32,SE,135,1.0,5.0,58,0.00,,,0.00,meteohub,2013-10-03 01:09:00,
2013-10-02 20:14:00,81.0,64.8,28.32,SE,135,4.0,6.0,58,0.00,,,0.00,meteohub,2013-10-03 01:14:00,
2013-10-02 20:19:00,80.6,64.9,28.32,SE,135,1.0,6.0,59,0.00,,,0.00,meteohub,2013-10-03 01:19:00,
2013-10-02 20:24:00,80.6,64.9,28.33,SE,135,6.0,6.0,59,0.00,,,0.00,meteohub,2013-10-03 01:24:00,
2013-10-02 20:29:00,80.6,64.9,28.33,SE,135,1.0,4.0,59,0.00,,,0.00,meteohub,2013-10-03 01:29:00,
2013-10-02 20:34:00,80.6,64.9,28.33,East,90,4.0,6.0,59,0.00,,,0.00,meteohub,2013-10-03 01:34:00,
2013-10-02 20:39:00,80.4,64.8,28.33,East,90,7.0,7.0,59,0.00,,,0.00,meteohub,2013-10-03 01:39:00,
2013-10-02 20:45:00,80.2,65.1,28.33,East,90,4.0,6.0,60,0.00,,,0.00,meteohub,2013-10-03 01:45:00,
2013-10-02 20:49:00,80.1,64.9,28.33,East,90,8.0,8.0,60,0.00,,,0.00,meteohub,2013-10-03 01:49:00,
2013-10-02 20:54:00,79.9,64.8,28.33,SE,135,4.0,7.0,60,0.00,,,0.00,meteohub,2013-10-03 01:54:00,
2013-10-02 20:59:00,79.9,65.3,28.33,East,90,7.0,9.0,61,0.00,,,0.00,meteohub,2013-10-03 01:59:00,
2013-10-02 21:04:00,79.5,64.9,28.34,East,90,7.0,10.0,61,0.00,,,0.00,meteohub,2013-10-03 02:04:00,
2013-10-02 21:05:00,79.5,64.9,28.34,East,90,7.0,10.0,61,0.00,,,0.00,meteohub,2013-10-03 02:05:00,
2013-10-02 21:10:00,79.3,65.1,28.34,NE,45,4.0,10.0,62,0.00,,,0.00,meteohub,2013-10-03 02:10:00,
2013-10-02 21:15:00,79.3,65.1,28.34,East,90,8.0,10.0,62,0.00,,,0.00,meteohub,2013-10-03 02:15:00,
2013-10-02 21:20:00,79.0,65.3,28.34,East,90,6.0,11.0,63,0.00,,,0.00,meteohub,2013-10-03 02:20:00,
2013-10-02 21:25:00,79.0,65.3,28.34,East,90,8.0,11.0,63,0.00,,,0.00,meteohub,2013-10-03 02:25:00,
2013-10-02 21:30:00,79.2,65.8,28.35,East,90,9.0,11.0,64,0.00,,,0.00,meteohub,2013-10-03 02:30:00,
2013-10-02 21:35:00,79.0,65.8,28.34,East,90,8.0,11.0,64,0.00,,,0.00,meteohub,2013-10-03 02:35:00,
2013-10-02 21:40:00,78.8,65.7,28.34,SSE,158,10.0,11.0,64,0.00,,,0.00,meteohub,2013-10-03 02:40:00,
2013-10-02 21:45:00,78.8,66.0,28.34,ESE,113,8.0,11.0,65,0.00,,,0.00,meteohub,2013-10-03 02:45:00,
2013-10-02 21:50:00,78.4,65.7,28.34,East,90,1.0,12.0,65,0.00,,,0.00,meteohub,2013-10-03 02:50:00,
2013-10-02 21:55:00,78.3,65.5,28.34,East,90,9.0,12.0,65,0.00,,,0.00,meteohub,2013-10-03 02:55:00,
2013-10-02 22:00:00,78.1,65.8,28.34,SE,135,8.0,12.0,66,0.00,,,0.00,meteohub,2013-10-03 03:00:00,
2013-10-02 22:05:00,77.9,65.7,28.34,East,90,10.0,11.0,66,0.00,,,0.00,meteohub,2013-10-03 03:05:00,
2013-10-02 22:10:00,77.9,65.7,28.34,East,90,8.0,12.0,66,0.00,,,0.00,meteohub,2013-10-03 03:10:00,
2013-10-02 22:16:00,77.7,65.5,28.34,East,90,9.0,12.0,66,0.00,,,0.00,meteohub,2013-10-03 03:16:00,
2013-10-02 22:21:00,77.5,65.3,28.34,East,90,10.0,12.0,66,0.00,,,0.00,meteohub,2013-10-03 03:21:00,
2013-10-02 22:26:00,77.4,65.1,28.34,East,90,8.0,15.0,66,0.00,,,0.00,meteohub,2013-10-03 03:26:00,
2013-10-02 22:31:00,77.4,65.5,28.34,East,90,8.0,15.0,67,0.00,,,0.00,meteohub,2013-10-03 03:31:00,
2013-10-02 22:36:00,77.2,65.3,28.34,East,90,11.0,15.0,67,0.00,,,0.00,meteohub,2013-10-03 03:36:00,
2013-10-02 22:41:00,77.2,65.8,28.34,East,90,11.0,13.0,68,0.00,,,0.00,meteohub,2013-10-03 03:41:00,
2013-10-02 22:46:00,77.0,66.0,28.35,SE,135,10.0,11.0,69,0.00,,,0.00,meteohub,2013-10-03 03:46:00,
2013-10-02 22:51:00,77.2,66.2,28.35,NE,45,6.0,14.0,69,0.00,,,0.00,meteohub,2013-10-03 03:51:00,
2013-10-02 22:56:00,77.0,66.4,28.35,SE,135,13.0,14.0,70,0.00,,,0.00,meteohub,2013-10-03 03:56:00,
2013-10-02 23:01:00,77.2,67.1,28.34,East,90,11.0,14.0,71,0.00,,,0.00,meteohub,2013-10-03 04:01:00,
2013-10-02 23:03:00,77.2,67.1,28.35,East,90,4.0,14.0,71,0.00,,,0.00,meteohub,2013-10-03 04:03:00,
2013-10-02 23:08:00,77.0,67.3,28.35,East,90,7.0,14.0,72,0.00,,,0.00,meteohub,2013-10-03 04:08:00,
2013-10-02 23:13:00,77.2,67.5,28.35,East,90,12.0,13.0,72,0.00,,,0.00,meteohub,2013-10-03 04:13:00,
2013-10-02 23:18:00,76.8,67.5,28.35,East,90,10.0,15.0,73,0.00,,,0.00,meteohub,2013-10-03 04:18:00,
2013-10-02 23:23:00,76.5,67.6,28.35,East,90,14.0,15.0,74,0.00,,,0.00,meteohub,2013-10-03 04:23:00,
2013-10-02 23:28:00,76.3,67.5,28.35,East,90,11.0,15.0,74,0.00,,,0.00,meteohub,2013-10-03 04:28:00,
2013-10-02 23:33:00,76.5,67.6,28.35,East,90,10.0,14.0,74,0.00,,,0.00,meteohub,2013-10-03 04:33:00,
2013-10-02 23:38:00,76.5,68.0,28.35,East,90,8.0,14.0,75,0.00,,,0.00,meteohub,2013-10-03 04:38:00,
2013-10-02 23:43:00,76.1,68.0,28.35,ESE,113,13.0,15.0,76,0.00,,,0.00,meteohub,2013-10-03 04:43:00,
2013-10-02 23:48:00,75.9,67.8,28.35,SE,135,11.0,15.0,76,0.00,,,0.00,meteohub,2013-10-03 04:48:00,
2013-10-02 23:53:00,76.3,68.5,28.35,NE,45,11.0,15.0,77,0.00,,,0.00,meteohub,2013-10-03 04:53:00,
2013-10-02 23:58:00,75.9,68.2,28.34,NE,45,15.0,15.0,77,0.00,,,0.00,meteohub,2013-10-03 04:58:00,